Time,TemperatureF,DewpointF,PressureIn,WindDirection,WindDirectionDegrees,WindSpeedMPH,WindSpeedGustMPH,Humidity,HourlyPrecipIn,Conditions,Clouds,dailyrainin,SoftwareType,DateUTC
2013-07-20 00:01:00,62.0,46.0,-100.00,North,-999,-999.0,-999.0,55,-99.99,,,-99.99,,2013-07-20 07:01:00,
2013-07-20 00:22:00,60.0,-99.9,-100.00,North,-999,-999.0,-999.0,-999,-99.99,,,-99.99,,2013-07-20 07:22:00,
2013-07-20 00:44:00,60.0,42.0,-100.00,North,-999,-999.0,-999.0,52,-99.99,,,-99.99,,2013-07-20 07:44:00,
2013-07-20 00:54:00,60.0,-99.9,-100.00,North,-999,-999.0,-999.0,-999,-99.99,,,-99.99,,2013-07-20 07:54:00,
2013-07-20 01:52:00,57.0,43.0,-100.00,North,-999,-999.0,-999.0,59,-99.99,,,-99.99,,2013-07-20 08:52:00,
2013-07-20 02:01:00,57.0,41.0,-100.00,North,-999,-999.0,-999.0,55,-99.99,,,-99.99,,2013-07-20 09:01:00,
2013-07-20 02:22:00,57.0,46.0,-100.00,North,-999,-999.0,-999.0,66,-99.99,,,-99.99,,2013-07-20 09:22:00,
2013-07-20 02:33:00,56.0,44.0,-100.00,North,-999,-999.0,-999.0,64,-99.99,,,-99.99,,2013-07-20 09:33:00,
2013-07-20 02:43:00,56.0,44.0,-100.00,North,360,0.0,-999.0,64,-99.99,,,-99.99,,2013-07-20 09:43:00,
2013-07-20 02:53:00,-999.0,-99.9,-100.00,North,360,0.0,-999.0,-999,-99.99,,,-99.99,,2013-07-20 09:53:00,
2013-07-20 03:01:00,56.0,42.0,-100.00,North,-999,-999.0,-999.0,58,-99.99,,,-99.99,,2013-07-20 10:01:00,
2013-07-20 03:11:00,56.0,42.0,-100.00,North,-999,-999.0,-999.0,58,-99.99,,,-99.99,,2013-07-20 10:11:00,
2013-07-20 03:21:00,56.0,42.0,-100.00,North,-999,-999.0,-999.0,58,-99.99,,,-99.99,,2013-07-20 10:21:00,
2013-07-20 04:22:00,54.0,-99.9,-100.00,North,-999,-999.0,-999.0,-999,-99.99,,,-99.99,,2013-07-20 11:22:00,
2013-07-20 04:32:00,54.0,-99.9,-100.00,North,-999,-999.0,-999.0,-999,-99.99,,,-99.99,,2013-07-20 11:32:00,
2013-07-20 04:43:00,54.0,-99.9,-100.00,North,-999,-999.0,-999.0,-999,-99.99,,,-99.99,,2013-07-20 11:43:00,
2013-07-20 04:52:00,54.0,-99.9,-100.00,North,-999,-999.0,-999.0,65,-99.99,,,-99.99,,2013-07-20 11:52:00,
2013-07-20 05:01:00,54.0,43.0,-100.00,North,-999,-999.0,-999.0,65,-99.99,,,-99.99,,2013-07-20 12:01:00,
2013-07-20 05:11:00,54.0,42.0,-100.00,North,-999,-999.0,-999.0,64,-99.99,,,-99.99,,2013-07-20 12:11:00,
2013-07-20 05:22:00,54.0,42.0,-100.00,North,-999,-999.0,-999.0,64,-99.99,,,-99.99,,2013-07-20 12:22:00,
2013-07-20 05:32:00,54.0,42.0,-100.00,North,-999,-999.0,-999.0,64,-99.99,,,-99.99,,2013-07-20 12:32:00,
2013-07-20 05:52:00,52.0,43.0,-100.00,North,-999,-999.0,-999.0,71,-99.99,,,-99.99,,2013-07-20 12:52:00,
2013-07-20 06:01:00,52.0,43.0,-100.00,North,-999,-999.0,-999.0,71,-99.99,,,-99.99,,2013-07-20 13:01:00,
2013-07-20 06:11:00,53.0,43.0,-100.00,North,360,0.0,-999.0,67,-99.99,,,-99.99,,2013-07-20 13:11:00,
2013-07-20 06:23:00,-999.0,-99.9,-100.00,North,360,0.0,-999.0,-999,-99.99,,,-99.99,,2013-07-20 13:23:00,
2013-07-20 06:52:00,52.0,40.0,-100.00,North,-999,-999.0,-999.0,62,-99.99,,,-99.99,,2013-07-20 13:52:00,
2013-07-20 07:02:00,52.0,40.0,-100.00,North,-999,-999.0,-999.0,63,-99.99,,,-99.99,,2013-07-20 14:02:00,
2013-07-20 07:22:00,52.0,43.0,-100.00,North,-999,-999.0,-999.0,71,-99.99,,,-99.99,,2013-07-20 14:22:00,
2013-07-20 07:32:00,52.0,43.0,-100.00,North,-999,-999.0,-999.0,71,-99.99,,,-99.99,,2013-07-20 14:32:00,
2013-07-20 07:43:00,53.0,-99.9,-100.00,North,-999,-999.0,-999.0,79,-99.99,,,-99.99,,2013-07-20 14:43:00,
2013-07-20 07:53:00,53.0,-99.9,-100.00,North,-999,-999.0,-999.0,79,-99.99,,,-99.99,,2013-07-20 14:53:00,
2013-07-20 08:22:00,56.0,49.0,-100.00,North,-999,-999.0,-999.0,76,-99.99,,,-99.99,,2013-07-20 15:22:00,
2013-07-20 09:32:00,66.0,52.0,-100.00,North,-999,-999.0,-999.0,61,-99.99,,,-99.99,,2013-07-20 16:32:00,
2013-07-20 11:02:00,74.0,-99.9,-100.00,North,-999,-999.0,-999.0,-999,-99.99,,,-99.99,,2013-07-20 18:02:00,
2013-07-20 11:12:00,74.0,-99.9,-100.00,North,360,0.0,-999.0,-999,-99.99,,,-99.99,,2013-07-20 18:12:00,
2013-07-20 12:27:00,77.0,-99.9,-100.00,North,-999,-999.0,-999.0,57,-99.99,,,-99.99,,2013-07-20 19:27:00,
2013-07-20 12:36:00,77.0,-99.9,-100.00,North,-999,-999.0,-999.0,57,-99.99,,,-99.99,,2013-07-20 19:36:00,
2013-07-20 12:45:00,-999.0,-99.9,-100.00,WNW,300,0.0,-999.0,-999,-99.99,,,-99.99,,2013-07-20 19:45:00,
2013-07-20 12:58:00,79.0,-99.9,-100.00,WNW,300,0.0,-999.0,-999,-99.99,,,-99.99,,2013-07-20 19:58:00,
2013-07-20 13:22:00,82.0,50.0,-100.00,WNW,300,1.0,-999.0,33,-99.99,,,-99.99,,2013-07-20 20:22:00,
2013-07-20 13:36:00,81.0,-99.9,-100.00,WNW,300,1.0,-999.0,50,-99.99,,,-99.99,,2013-07-20 20:36:00,
2013-07-20 16:18:00,81.0,-99.9,-100.00,West,270,1.0,-999.0,60,-99.99,,,-99.99,,2013-07-20 23:18:00,
2013-07-20 19:01:00,83.0,-99.9,-100.00,NNW,330,0.0,-999.0,45,-99.99,,,-99.99,,2013-07-21 02:01:00,
2013-07-20 21:22:00,74.0,-99.9,-100.00,North,-999,-999.0,-999.0,55,-99.99,,,-99.99,,2013-07-21 04:22:00,
2013-07-20 21:33:00,73.0,-99.9,-100.00,North,-999,-999.0,-999.0,55,-99.99,,,-99.99,,2013-07-21 04:33:00,
2013-07-20 23:01:00,67.0,55.0,-100.00,North,-999,-999.0,-999.0,65,-99.99,,,-99.99,,2013-07-21 06:01:00,
2013-07-20 23:11:00,66.0,54.0,-100.00,North,-999,-999.0,-999.0,65,-99.99,,,-99.99,,2013-07-21 06:11:00,